| time (UTC) | temp F | wind direction | speed knots | gust knots | rain 1hr in | rain 24hr in | rain mn in | humidity % | barometer mb |
| 20260504081600 | 50 | 0 | 0.0 | 1.7 | 0.00 | 0.00 | 0.00 | 92 | 1017.0 |
| 20260504044540 | 55 | 0 | 0.0 | 1.7 | 0.00 | 0.00 | 0.00 | 90 | 1018.1 |
| 20260504043039 | 55 | 0 | 0.0 | 0.9 | 0.00 | 0.00 | 0.00 | 90 | 1018.3 |
| 20260504041540 | 55 | 265 | 0.0 | 0.9 | 0.00 | 0.00 | 0.00 | 90 | 1018.4 |
| 20260504040040 | 56 | 0 | 0.0 | 3.5 | 0.00 | 0.00 | 0.00 | 88 | 1018.3 |
| 20260504034541 | 56 | 0 | 0.0 | 0.9 | 0.00 | 0.00 | 0.00 | 88 | 1018.3 |
| 20260504033037 | 57 | 0 | 0.0 | 1.7 | 0.00 | 0.00 | 0.00 | 87 | 1018.4 |
| 20260504031536 | 58 | 0 | 0.0 | 0.9 | 0.00 | 0.00 | 0.00 | 86 | 1018.5 |
| 20260504030043 | 58 | 310 | 0.9 | 1.7 | 0.00 | 0.00 | 0.00 | 85 | 1018.4 |
| 20260504024539 | 59 | 0 | 0.0 | 0.9 | 0.00 | 0.00 | 0.00 | 84 | 1018.4 |
| 20260504023037 | 59 | 327 | 0.0 | 0.9 | 0.00 | 0.00 | 0.00 | 82 | 1018.3 |
| 20260504021537 | 60 | 0 | 0.0 | 0.9 | 0.00 | 0.00 | 0.00 | 80 | 1018.2 |
| 20260504020040 | 61 | 0 | 0.0 | 1.7 | 0.00 | 0.00 | 0.00 | 79 | 1017.9 |
| 20260504014558 | 62 | 0 | 0.0 | 2.6 | 0.00 | 0.00 | 0.00 | 76 | 1017.5 |
| 20260504013045 | 63 | 0 | 0.0 | 0.9 | 0.00 | 0.00 | 0.00 | 71 | 1017.3 |
| 20260504011540 | 65 | 340 | 0.0 | 0.9 | 0.00 | 0.00 | 0.00 | 68 | 1017.1 |
| 20260504010038 | 67 | 0 | 0.0 | 0.9 | 0.00 | 0.00 | 0.00 | 63 | 1017.1 |
| 20260504004537 | 68 | 340 | 0.0 | 0.9 | 0.00 | 0.00 | 0.00 | 60 | 1017.0 |
| 20260504003049 | 71 | 0 | 0.0 | 0.9 | 0.00 | 0.00 | 0.00 | 53 | 1017.0 |
| 20260504001544 | 72 | 0 | 0.0 | 1.7 | 0.00 | 0.00 | 0.00 | 44 | 1016.9 |
| 20260504000046 | 74 | 344 | 0.9 | 2.6 | 0.00 | 0.00 | 0.00 | 41 | 1017.1 |
| 20260503234547 | 74 | 336 | 0.0 | 3.5 | 0.00 | 0.00 | 0.00 | 42 | 1017.1 |
| 20260503233045 | 74 | 5 | 0.9 | 4.3 | 0.00 | 0.00 | 0.00 | 39 | 1017.1 |
| 20260503231537 | 75 | 11 | 2.6 | 4.3 | 0.00 | 0.00 | 0.00 | 37 | 1017.2 |
| 20260503230042 | 76 | 302 | 1.7 | 3.5 | 0.00 | 0.00 | 0.00 | 35 | 1017.2 |
| 20260503224537 | 76 | 335 | 1.7 | 5.2 | 0.00 | 0.00 | 0.00 | 35 | 1017.1 |
| 20260503223041 | 77 | 9 | 1.7 | 7.0 | 0.00 | 0.00 | 0.00 | 34 | 1017.2 |
| 20260503221538 | 76 | 286 | 0.9 | 7.0 | 0.00 | 0.00 | 0.00 | 35 | 1017.2 |
| 20260503220046 | 77 | 349 | 1.7 | 7.0 | 0.00 | 0.00 | 0.00 | 36 | 1017.4 |
| 20260503214538 | 77 | 272 | 1.7 | 7.8 | 0.00 | 0.00 | 0.00 | 35 | 1017.5 |
| 20260503213035 | 77 | 13 | 2.6 | 7.8 | 0.00 | 0.00 | 0.00 | 36 | 1017.7 |
| 20260503211537 | 77 | 9 | 1.7 | 7.8 | 0.00 | 0.00 | 0.00 | 35 | 1017.8 |
| 20260503210040 | 76 | 317 | 2.6 | 9.6 | 0.00 | 0.00 | 0.00 | 37 | 1018.0 |
| 20260503204539 | 76 | 250 | 1.7 | 7.8 | 0.00 | 0.00 | 0.00 | 36 | 1018.1 |
| 20260503203038 | 76 | 306 | 4.3 | 8.7 | 0.00 | 0.00 | 0.00 | 34 | 1018.5 |
| 20260503201536 | 76 | 24 | 4.3 | 11.3 | 0.00 | 0.00 | 0.00 | 34 | 1018.8 |
| 20260503200037 | 76 | 275 | 2.6 | 7.8 | 0.00 | 0.00 | 0.00 | 38 | 1019.1 |
| 20260503194539 | 76 | 79 | 4.3 | 9.6 | 0.00 | 0.00 | 0.00 | 35 | 1019.4 |
| 20260503193047 | 75 | 23 | 1.7 | 9.6 | 0.00 | 0.00 | 0.00 | 38 | 1019.6 |
| 20260503191539 | 75 | 282 | 1.7 | 7.8 | 0.00 | 0.00 | 0.00 | 37 | 1019.8 |
| 20260503190037 | 75 | 329 | 4.3 | 8.7 | 0.00 | 0.00 | 0.00 | 41 | 1020.1 |
| 20260503184544 | 74 | 289 | 2.6 | 7.0 | 0.00 | 0.00 | 0.00 | 38 | 1020.2 |
| 20260503183052 | 73 | 267 | 3.5 | 9.6 | 0.00 | 0.00 | 0.00 | 39 | 1020.5 |
| 20260503181544 | 74 | 13 | 2.6 | 9.6 | 0.00 | 0.00 | 0.00 | 41 | 1020.6 |
| 20260503180037 | 73 | 40 | 5.2 | 13.0 | 0.00 | 0.00 | 0.00 | 36 | 1020.8 |
| 20260503174537 | 73 | 40 | 6.1 | 12.2 | 0.00 | 0.00 | 0.00 | 37 | 1020.9 |
| 20260503173037 | 72 | 15 | 2.6 | 10.4 | 0.00 | 0.00 | 0.00 | 39 | 1021.4 |
| 20260503171537 | 71 | 304 | 1.7 | 4.3 | 0.00 | 0.00 | 0.00 | 47 | 1021.6 |